11:56
Airports
Links
Donate
Help keep this website running!
PayPal
Bitcoin
METAR
PHHI 211056Z AUTO 31004KT 10SM FEW050 17/15 A2998 RMK AO2 SLP146 T01710149 FZRANO $
Current Weather Conditions at PHHI
VFR 10:56:00 21-11-17
Automated station, no observer
Altimeter:29.98 hg
Temp:17.1°c 63°f
Dew point:14.9°c 57°f
Wind:4 knots, 4.6 mph, 2 m/s, from 310°
Visibility:10.0 statute miles
5000(FEW) A few
Past METAR reports
VFR 09:56:00 21-11-17
Automated station, no observer
Altimeter:29.99 hg
Temp:16.7°c 61°f
Dew point:15.2°c 59°f
Wind:4 knots, 4.6 mph, 2 m/s, from 300°
Visibility:10.0 statute miles
(CLR) Clear
PHHI 210956Z AUTO 30004KT 10SM CLR 17/15 A2999 RMK AO2 SLP149 T01670152 402360147 FZRANO $
VFR 08:56:00 21-11-17
Automated station, no observer
Altimeter:29.99 hg
Temp:18.9°c 64°f
Dew point:15.6°c 59°f
Wind:3 knots, 3.5 mph, 2 m/s, from 360°
Visibility:10.0 statute miles
4900(BKN) Broken
PHHI 210856Z AUTO 36003KT 10SM BKN049 19/16 A2999 RMK AO2 SLP148 T01890156 51008 FZRANO $
VFR 07:56:00 21-11-17
Automated station, no observer
Altimeter:29.99 hg
Temp:18.9°c 64°f
Dew point:16.1°c 61°f
Wind:3 knots, 3.5 mph, 2 m/s, from 10°
Visibility:10.0 statute miles
4700(BKN) Broken
PHHI 210756Z AUTO 01003KT 10SM BKN047 19/16 A2999 RMK AO2 SLP149 T01890161 FZRANO $
VFR 06:56:00 21-11-17
Automated station, no observer
Altimeter:29.98 hg
Temp:18.6°c 64°f
Dew point:16.6°c 61°f
Wind:4 knots, 4.6 mph, 2 m/s, from 340°
Visibility:10.0 statute miles
5500(BKN) Broken
3700(BKN) Broken
2800(FEW) A few
2200(FEW) A few
PHHI 210656Z AUTO 34004KT 10SM FEW022 FEW028 BKN037 BKN055 19/17 A2998 RMK AO2 SLP146 T01860166 FZRANO $
TAF
TAF PHHI 210700Z 2107/2213 VRB06KT 9999 VCSH SCT020 QNH2994INS BECMG 2120/2121 36012KT 9999 NSW SCT030 QNH2995INS TEMPO 2121/2203 36012G18KT BECMG 2206/2207 36006KT 9999 VCSH SCT020 QNH3000INS TX22/2201Z TN16/2113Z
Forecast at PHHI
07:00 21-11-17 to 20:00 21-11-17
VCSH
Wind:6 Knots from 360°
Visibility:6.21 statute miles
2000SCT Scattered
BECMG 20:00 21-11-17 to 06:00 22-11-17
NSW
Wind:12 Knots from 360°
Visibility:6.21 statute miles
3000SCT Scattered
TEMPO 21:00 21-11-17 to 03:00 22-11-17
Wind:12 Knots from 360°
BECMG 06:00 22-11-17 to 13:00 22-11-17
VCSH
Wind:6 Knots from 360°
Visibility:6.21 statute miles
2000SCT Scattered